createdAt,value
2019-06-26T00:00:18.647Z,23.11
2019-06-26T00:01:19.710Z,23.11
2019-06-26T00:02:21.110Z,23.07
2019-06-26T00:03:22.516Z,23.15
2019-06-26T00:04:23.910Z,23.19
2019-06-26T00:05:25.311Z,22.99
2019-06-26T00:06:26.710Z,23.03
2019-06-26T00:07:28.113Z,23.09
2019-06-26T00:08:29.517Z,23.07
2019-06-26T00:09:30.939Z,23.06
2019-06-26T00:10:32.335Z,22.96
2019-06-26T00:11:33.746Z,22.93
2019-06-26T00:12:35.150Z,22.94
2019-06-26T00:13:36.550Z,22.91
2019-06-26T00:14:38.879Z,22.97
2019-06-26T00:15:39.333Z,22.94
2019-06-26T00:16:40.738Z,22.91
2019-06-26T00:17:42.153Z,22.82
2019-06-26T00:18:43.535Z,22.84
2019-06-26T00:19:44.932Z,22.84
2019-06-26T00:20:46.348Z,22.82
2019-06-26T00:21:47.744Z,22.82
2019-06-26T00:22:49.153Z,22.81
2019-06-26T00:23:50.628Z,22.78
2019-06-26T00:24:51.919Z,22.72
2019-06-26T00:25:53.322Z,22.69
2019-06-26T00:26:54.727Z,22.69
2019-06-26T00:27:56.125Z,22.67
2019-06-26T00:28:57.525Z,22.64
2019-06-26T00:29:58.923Z,22.72
2019-06-26T00:31:00.323Z,22.67
2019-06-26T00:32:01.769Z,22.54
2019-06-26T00:33:03.145Z,22.64
2019-06-26T00:34:04.537Z,22.66
2019-06-26T00:35:05.946Z,22.56
2019-06-26T00:36:07.345Z,22.54
2019-06-26T00:37:08.740Z,22.54
2019-06-26T00:38:10.138Z,22.52
2019-06-26T00:39:11.537Z,22.52
2019-06-26T00:40:12.938Z,22.46
2019-06-26T00:41:14.349Z,22.42
2019-06-26T00:42:15.742Z,22.49
2019-06-26T00:43:17.152Z,22.39
2019-06-26T00:44:18.569Z,22.46
2019-06-26T00:45:19.961Z,22.33
2019-06-26T00:46:21.351Z,22.36
2019-06-26T00:47:22.749Z,22.41
2019-06-26T00:48:24.151Z,22.31
2019-06-26T00:49:25.559Z,22.44
2019-06-26T00:50:26.959Z,22.24
2019-06-26T00:51:28.368Z,22.33
2019-06-26T00:52:29.788Z,22.27
2019-06-26T00:53:31.169Z,22.29
2019-06-26T00:54:32.562Z,22.31
2019-06-26T00:55:33.968Z,22.36
2019-06-26T00:56:35.380Z,22.27
2019-06-26T00:57:36.765Z,22.30
2019-06-26T00:58:38.163Z,22.30
2019-06-26T00:59:39.568Z,22.27
2019-06-26T01:00:40.966Z,22.30
2019-06-26T01:01:42.374Z,22.29
2019-06-26T01:02:43.790Z,22.29
2019-06-26T01:03:45.198Z,22.21
2019-06-26T01:04:46.612Z,22.26
2019-06-26T01:05:48.009Z,22.30
2019-06-26T01:06:49.417Z,22.29
2019-06-26T01:07:50.809Z,22.31
2019-06-26T01:08:52.221Z,22.26
2019-06-26T01:09:53.609Z,22.26
2019-06-26T01:10:55.016Z,22.27
2019-06-26T01:11:56.417Z,22.21
2019-06-26T01:12:57.831Z,22.20
2019-06-26T01:13:59.241Z,22.29
2019-06-26T01:15:00.657Z,22.21
2019-06-26T01:16:02.045Z,22.21
2019-06-26T01:17:03.447Z,22.24
2019-06-26T01:18:04.859Z,22.27
2019-06-26T01:19:06.279Z,22.15
2019-06-26T01:20:07.696Z,22.30
2019-06-26T01:21:09.121Z,22.26
2019-06-26T01:22:10.510Z,22.29
2019-06-26T01:23:11.918Z,22.23
2019-06-26T01:24:13.316Z,22.26
2019-06-26T01:25:14.722Z,22.31
2019-06-26T01:26:16.126Z,22.29
2019-06-26T01:27:17.514Z,22.20
2019-06-26T01:28:18.927Z,22.26
2019-06-26T01:29:20.342Z,22.30
2019-06-26T01:30:21.750Z,22.21
2019-06-26T01:31:23.108Z,22.21
2019-06-26T01:32:24.510Z,22.30
2019-06-26T01:33:25.913Z,22.23
2019-06-26T01:34:27.319Z,22.23
2019-06-26T01:35:28.728Z,22.24
2019-06-26T01:36:30.117Z,22.27
2019-06-26T01:37:31.526Z,22.21
2019-06-26T01:38:32.920Z,22.35
2019-06-26T01:39:34.328Z,22.38
2019-06-26T01:40:35.732Z,22.30
2019-06-26T01:41:37.146Z,22.29
2019-06-26T01:42:38.546Z,22.23
2019-06-26T01:43:39.941Z,22.35
2019-06-26T01:44:41.339Z,22.33
2019-06-26T01:45:42.757Z,22.21
2019-06-26T01:46:44.139Z,22.26
2019-06-26T01:47:45.554Z,22.27
2019-06-26T01:48:46.960Z,22.17
2019-06-26T01:49:48.358Z,22.14
2019-06-26T01:50:49.769Z,22.08
2019-06-26T01:51:51.173Z,22.17
2019-06-26T01:52:52.586Z,22.19
2019-06-26T01:53:53.983Z,22.19
2019-06-26T01:54:55.392Z,22.14
2019-06-26T01:55:56.792Z,22.09
2019-06-26T01:56:58.211Z,22.02
2019-06-26T01:57:59.610Z,22.01
2019-06-26T01:59:01.011Z,22.01
2019-06-26T02:00:02.480Z,21.96
2019-06-26T02:01:03.916Z,22.04
2019-06-26T02:02:05.360Z,22.01
2019-06-26T02:03:06.756Z,22.05
2019-06-26T02:04:08.164Z,22.04
2019-06-26T02:05:09.562Z,21.94
2019-06-26T02:06:10.964Z,22.04
2019-06-26T02:07:12.360Z,22.06
2019-06-26T02:08:13.762Z,22.01
2019-06-26T02:09:15.167Z,21.94
2019-06-26T02:10:16.563Z,21.98
2019-06-26T02:11:17.958Z,21.94
2019-06-26T02:12:19.359Z,21.85
2019-06-26T02:13:20.760Z,21.91
2019-06-26T02:14:31.087Z,21.93
2019-06-26T02:15:23.545Z,21.83
2019-06-26T02:16:24.953Z,21.93
2019-06-26T02:17:26.364Z,21.85
2019-06-26T02:18:27.780Z,21.93
2019-06-26T02:19:29.158Z,21.99
2019-06-26T02:20:30.575Z,21.91
2019-06-26T02:21:31.977Z,21.85
2019-06-26T02:22:33.397Z,21.90
2019-06-26T02:23:34.781Z,21.89
2019-06-26T02:24:36.187Z,21.89
2019-06-26T02:25:37.598Z,21.90
2019-06-26T02:26:39.008Z,21.86
2019-06-26T02:27:40.444Z,21.93
2019-06-26T02:28:41.820Z,21.91
2019-06-26T02:29:43.236Z,21.79
2019-06-26T02:30:44.638Z,21.93
2019-06-26T02:31:46.038Z,21.85
2019-06-26T02:32:47.457Z,21.90
2019-06-26T02:33:48.855Z,21.82
2019-06-26T02:34:50.261Z,21.86
2019-06-26T02:35:51.667Z,21.75
2019-06-26T02:36:53.082Z,21.83
2019-06-26T02:37:54.480Z,21.82
2019-06-26T02:38:55.880Z,21.77
2019-06-26T02:39:57.304Z,21.75
2019-06-26T02:40:58.713Z,21.79
2019-06-26T02:42:00.131Z,21.70
2019-06-26T02:43:06.348Z,21.73
2019-06-26T02:44:02.894Z,21.68
2019-06-26T02:45:04.288Z,21.68
2019-06-26T02:46:05.704Z,21.70
2019-06-26T02:47:19.815Z,21.74
2019-06-26T02:48:08.484Z,21.70
2019-06-26T02:49:09.892Z,21.66
2019-06-26T02:50:11.305Z,21.61
2019-06-26T02:51:12.715Z,21.71
2019-06-26T02:52:14.130Z,21.66
2019-06-26T02:53:15.529Z,21.63
2019-06-26T02:54:16.933Z,21.63
2019-06-26T02:55:18.353Z,21.68
2019-06-26T02:56:19.765Z,21.66
2019-06-26T02:57:21.188Z,21.64
2019-06-26T02:58:22.604Z,21.59
2019-06-26T02:59:24.030Z,21.55
2019-06-26T03:00:25.447Z,21.64
2019-06-26T03:01:26.874Z,21.58
2019-06-26T03:02:28.267Z,21.64
2019-06-26T03:03:29.697Z,21.59
2019-06-26T03:04:31.111Z,21.58
2019-06-26T03:05:32.584Z,21.61
2019-06-26T03:06:34.005Z,21.56
2019-06-26T03:07:35.409Z,21.56
2019-06-26T03:08:36.811Z,21.63
2019-06-26T03:09:38.222Z,21.63
2019-06-26T03:10:39.657Z,21.66
2019-06-26T03:11:41.069Z,21.59
2019-06-26T03:12:42.481Z,21.61
2019-06-26T03:13:43.878Z,21.64
2019-06-26T03:14:45.283Z,21.58
2019-06-26T03:15:50.174Z,21.59
2019-06-26T03:16:48.068Z,21.58
2019-06-26T03:17:55.358Z,21.59
2019-06-26T03:18:50.840Z,21.61
2019-06-26T03:19:52.247Z,21.63
2019-06-26T03:20:53.654Z,21.66
2019-06-26T03:21:55.060Z,21.68
2019-06-26T03:22:56.462Z,21.67
2019-06-26T03:23:57.874Z,21.71
2019-06-26T03:24:59.313Z,21.68
2019-06-26T03:26:00.727Z,21.75
2019-06-26T03:27:02.139Z,21.73
2019-06-26T03:28:03.560Z,21.70
2019-06-26T03:29:04.969Z,21.77
2019-06-26T03:30:06.381Z,21.89
2019-06-26T03:31:07.788Z,21.89
2019-06-26T03:32:09.189Z,21.83
2019-06-26T03:33:10.606Z,21.94
2019-06-26T03:34:12.010Z,21.86
2019-06-26T03:35:13.422Z,21.86
2019-06-26T03:36:14.827Z,21.91
2019-06-26T03:37:16.231Z,21.93
2019-06-26T03:38:17.635Z,21.94
2019-06-26T03:39:19.046Z,21.96
2019-06-26T03:40:20.457Z,22.04
2019-06-26T03:41:21.866Z,22.15
2019-06-26T03:42:23.265Z,22.12
2019-06-26T03:43:25.428Z,22.15
2019-06-26T03:44:26.823Z,22.26
2019-06-26T03:45:28.225Z,22.30
2019-06-26T03:46:29.654Z,22.27
2019-06-26T03:47:31.078Z,22.31
2019-06-26T03:48:32.475Z,22.44
2019-06-26T03:49:33.890Z,22.36
2019-06-26T03:50:35.306Z,22.49
2019-06-26T03:51:36.712Z,22.54
2019-06-26T03:52:38.111Z,22.64
2019-06-26T03:53:39.511Z,22.72
2019-06-26T03:54:40.922Z,22.67
2019-06-26T03:55:42.316Z,22.70
2019-06-26T03:56:43.736Z,22.81
2019-06-26T03:57:45.139Z,22.84
2019-06-26T03:58:46.541Z,22.96
2019-06-26T03:59:47.947Z,22.91
2019-06-26T04:00:49.353Z,23.04
2019-06-26T04:01:50.766Z,23.04
2019-06-26T04:02:52.174Z,23.03
2019-06-26T04:03:56.528Z,23.16
2019-06-26T04:04:54.953Z,23.16
2019-06-26T04:05:56.360Z,23.26
2019-06-26T04:06:57.762Z,23.39
2019-06-26T04:07:59.174Z,23.42
2019-06-26T04:09:00.569Z,23.38
2019-06-26T04:10:02.019Z,23.35
2019-06-26T04:11:03.413Z,23.38
2019-06-26T04:12:04.806Z,23.47
2019-06-26T04:13:06.216Z,23.32
2019-06-26T04:14:07.684Z,23.31
2019-06-26T04:15:09.082Z,23.49
2019-06-26T04:16:10.511Z,23.47
2019-06-26T04:17:11.908Z,23.38
2019-06-26T04:18:13.325Z,23.39
2019-06-26T04:19:14.738Z,23.52
2019-06-26T04:20:16.152Z,23.42
2019-06-26T04:21:17.555Z,23.49
2019-06-26T04:22:18.959Z,23.59
2019-06-26T04:23:20.375Z,23.56
2019-06-26T04:24:21.775Z,23.60
2019-06-26T04:25:23.171Z,23.71
2019-06-26T04:26:24.585Z,23.75
2019-06-26T04:27:25.989Z,23.84
2019-06-26T04:28:27.394Z,23.74
2019-06-26T04:29:28.809Z,23.82
2019-06-26T04:30:30.221Z,23.81
2019-06-26T04:31:31.622Z,23.81
2019-06-26T04:32:33.024Z,23.84
2019-06-26T04:33:34.430Z,23.97
2019-06-26T04:34:35.836Z,24.04
2019-06-26T04:35:37.250Z,24.16
2019-06-26T04:36:38.682Z,24.53
2019-06-26T04:37:40.071Z,24.90
2019-06-26T04:38:41.476Z,25.27
2019-06-26T04:39:42.902Z,25.67
2019-06-26T04:40:44.314Z,26.13
2019-06-26T04:41:45.718Z,26.49
2019-06-26T04:42:47.129Z,26.65
2019-06-26T04:43:48.539Z,27.03
2019-06-26T04:44:49.949Z,27.31
2019-06-26T04:45:58.111Z,27.77
2019-06-26T04:46:52.720Z,27.99
2019-06-26T04:47:54.132Z,28.64
2019-06-26T04:48:55.523Z,29.00
2019-06-26T04:49:56.957Z,29.48
2019-06-26T04:50:58.368Z,29.81
2019-06-26T04:51:59.787Z,30.08
2019-06-26T04:53:01.195Z,30.15
2019-06-26T04:54:02.621Z,29.94
2019-06-26T04:55:04.046Z,29.86
2019-06-26T04:56:05.472Z,29.62
2019-06-26T04:57:06.867Z,29.60
2019-06-26T04:58:08.287Z,29.37
2019-06-26T04:59:09.714Z,29.32
2019-06-26T05:00:11.106Z,29.15
2019-06-26T05:01:12.532Z,29.00
2019-06-26T05:02:13.945Z,28.69
2019-06-26T05:03:15.342Z,28.62
2019-06-26T05:04:16.754Z,28.61
2019-06-26T05:05:18.167Z,28.73
2019-06-26T05:06:19.576Z,28.74
2019-06-26T05:07:20.992Z,28.70
2019-06-26T05:08:22.417Z,28.72
2019-06-26T05:09:23.832Z,28.60
2019-06-26T05:10:25.249Z,28.54
2019-06-26T05:11:26.661Z,28.33
2019-06-26T05:12:28.085Z,28.36
2019-06-26T05:13:29.515Z,28.42
2019-06-26T05:14:30.925Z,28.33
2019-06-26T05:15:32.355Z,28.35
2019-06-26T05:16:33.761Z,28.30
2019-06-26T05:17:35.189Z,28.40
2019-06-26T05:18:36.593Z,28.35
2019-06-26T05:19:38.014Z,28.46
2019-06-26T05:20:39.428Z,28.48
2019-06-26T05:21:40.845Z,28.35
2019-06-26T05:22:42.246Z,28.46
2019-06-26T05:23:43.754Z,28.45
2019-06-26T05:24:46.529Z,28.51
2019-06-26T05:25:46.436Z,28.51
2019-06-26T05:26:47.853Z,28.55
2019-06-26T05:27:49.295Z,28.67
2019-06-26T05:28:50.713Z,28.79
2019-06-26T05:29:54.410Z,29.07
2019-06-26T05:30:53.516Z,29.35
2019-06-26T05:31:54.931Z,29.41
2019-06-26T05:32:56.343Z,29.41
2019-06-26T05:33:57.763Z,29.49
2019-06-26T05:34:59.179Z,29.51
2019-06-26T05:36:00.621Z,29.60
2019-06-26T05:37:02.042Z,29.69
2019-06-26T05:38:03.440Z,30.03
2019-06-26T05:39:04.855Z,30.57
2019-06-26T05:40:06.295Z,31.41
2019-06-26T05:41:07.719Z,32.21
2019-06-26T05:42:09.147Z,32.65
2019-06-26T05:43:10.551Z,33.65
2019-06-26T05:44:11.968Z,34.45
2019-06-26T05:45:13.401Z,34.87
2019-06-26T05:46:29.738Z,35.58
2019-06-26T05:47:16.171Z,36.15
2019-06-26T05:48:17.596Z,36.83
2019-06-26T05:49:19.033Z,37.39
2019-06-26T05:50:20.459Z,38.09
2019-06-26T05:51:21.892Z,38.36
2019-06-26T05:52:23.297Z,38.70
2019-06-26T05:53:24.713Z,38.92
2019-06-26T05:54:26.133Z,39.31
2019-06-26T05:55:27.583Z,39.70
2019-06-26T05:56:29.014Z,39.81
2019-06-26T05:57:30.433Z,40.09
2019-06-26T05:58:31.881Z,40.19
2019-06-26T05:59:33.327Z,40.56
2019-06-26T06:00:34.713Z,41.01
2019-06-26T06:01:36.137Z,41.31
2019-06-26T06:02:37.562Z,41.47
2019-06-26T06:03:38.972Z,41.29
2019-06-26T06:04:40.387Z,41.29
2019-06-26T06:05:41.819Z,41.31
2019-06-26T06:06:43.254Z,41.35
2019-06-26T06:07:44.667Z,41.65
2019-06-26T06:08:46.097Z,41.88
2019-06-26T06:09:47.538Z,42.07
2019-06-26T06:10:48.949Z,42.49
2019-06-26T06:11:50.395Z,42.71
2019-06-26T06:12:51.844Z,43.16
2019-06-26T06:13:53.255Z,43.55
2019-06-26T06:14:54.681Z,43.89
2019-06-26T06:15:56.121Z,44.28
2019-06-26T06:16:57.549Z,44.54
2019-06-26T06:17:58.980Z,44.88
2019-06-26T06:19:00.405Z,45.34
2019-06-26T06:20:02.098Z,45.70
2019-06-26T06:21:03.309Z,45.85
2019-06-26T06:22:04.733Z,45.91
2019-06-26T06:23:06.162Z,45.92
2019-06-26T06:24:07.583Z,46.33
2019-06-26T06:25:09.016Z,46.49
2019-06-26T06:26:10.444Z,46.71
2019-06-26T06:27:11.890Z,46.74
2019-06-26T06:28:13.322Z,47.06
2019-06-26T06:29:14.746Z,46.98
2019-06-26T06:30:16.196Z,47.17
2019-06-26T06:31:17.627Z,47.43
2019-06-26T06:32:19.056Z,47.88
2019-06-26T06:33:20.487Z,47.90
2019-06-26T06:34:21.916Z,48.01
2019-06-26T06:35:23.350Z,48.10
2019-06-26T06:36:24.792Z,48.29
2019-06-26T06:37:26.223Z,48.19
2019-06-26T06:38:27.651Z,48.28
2019-06-26T06:39:29.063Z,48.35
2019-06-26T06:40:30.503Z,48.55
2019-06-26T06:41:31.925Z,48.47
2019-06-26T06:42:33.370Z,48.63
2019-06-26T06:43:34.785Z,48.72
2019-06-26T06:44:36.215Z,48.70
2019-06-26T06:45:37.670Z,48.88
2019-06-26T06:46:39.102Z,48.82
2019-06-26T06:47:40.554Z,49.09
2019-06-26T06:48:41.979Z,49.25
2019-06-26T06:49:43.410Z,49.30
2019-06-26T06:50:44.829Z,49.55
2019-06-26T06:51:47.904Z,49.49
2019-06-26T06:52:48.600Z,49.58
2019-06-26T06:53:55.765Z,49.88
2019-06-26T06:56:42.522Z,50.14
2019-06-26T06:57:49.257Z,50.25
2019-06-26T06:59:01.634Z,50.41
2019-06-26T07:00:03.120Z,50.43
2019-06-26T07:01:04.567Z,50.31
2019-06-26T07:02:05.995Z,50.19
2019-06-26T07:03:07.432Z,49.75
2019-06-26T07:04:08.861Z,49.47
2019-06-26T07:05:10.314Z,49.74
2019-06-26T07:06:11.751Z,49.84
2019-06-26T07:07:13.184Z,49.83
2019-06-26T07:08:14.633Z,49.51
2019-06-26T07:09:16.037Z,49.27
2019-06-26T07:10:17.476Z,49.44
2019-06-26T07:11:18.945Z,49.81
2019-06-26T07:12:20.958Z,49.71
2019-06-26T07:13:21.787Z,50.06
2019-06-26T07:14:23.219Z,50.25
2019-06-26T07:15:24.678Z,50.22
2019-06-26T07:16:26.131Z,50.47
2019-06-26T07:17:27.531Z,50.42
2019-06-26T07:18:28.965Z,49.97
2019-06-26T07:19:30.415Z,50.27
2019-06-26T07:20:31.854Z,50.39
2019-06-26T07:21:33.320Z,50.21
2019-06-26T07:22:34.745Z,50.54
2019-06-26T07:23:36.191Z,49.99
2019-06-26T07:24:37.628Z,50.07
2019-06-26T07:25:39.061Z,50.47
2019-06-26T07:26:40.500Z,50.62
2019-06-26T07:27:41.928Z,50.67
2019-06-26T07:28:43.384Z,50.67
2019-06-26T07:29:44.816Z,50.61
2019-06-26T07:30:46.259Z,50.42
2019-06-26T07:31:47.769Z,50.51
2019-06-26T07:32:49.165Z,50.60
2019-06-26T07:33:50.580Z,50.61
2019-06-26T07:34:52.019Z,50.51
2019-06-26T07:35:53.461Z,50.86
2019-06-26T07:36:54.901Z,50.85
2019-06-26T07:37:59.867Z,50.67
2019-06-26T07:38:57.750Z,50.58
2019-06-26T07:40:01.698Z,50.62
2019-06-26T07:41:00.621Z,50.80
2019-06-26T07:42:02.275Z,50.80
2019-06-26T07:43:03.702Z,51.12
2019-06-26T07:44:05.137Z,50.89
2019-06-26T07:45:06.564Z,51.12
2019-06-26T07:46:08.054Z,50.96
2019-06-26T07:47:22.354Z,50.80
2019-06-26T07:48:10.891Z,50.77
2019-06-26T07:49:12.328Z,50.98
2019-06-26T07:50:13.788Z,50.74
2019-06-26T07:51:15.231Z,50.86
2019-06-26T07:52:16.673Z,50.77
2019-06-26T07:53:18.116Z,50.93
2019-06-26T07:54:19.555Z,50.80
2019-06-26T07:55:20.990Z,50.96
2019-06-26T07:56:22.450Z,51.10
2019-06-26T07:57:23.902Z,51.08
2019-06-26T07:58:25.318Z,51.05
2019-06-26T07:59:26.765Z,50.79
2019-06-26T08:00:31.395Z,51.03
2019-06-26T08:01:29.634Z,50.91
2019-06-26T08:02:31.080Z,50.80
2019-06-26T08:03:32.511Z,50.54
2019-06-26T08:04:33.951Z,50.47
2019-06-26T08:05:35.405Z,49.74
2019-06-26T08:06:36.838Z,50.23
2019-06-26T08:07:38.285Z,50.48
2019-06-26T08:08:39.737Z,50.73
2019-06-26T08:09:41.181Z,50.86
2019-06-26T08:10:42.640Z,50.67
2019-06-26T08:11:44.078Z,50.74
2019-06-26T08:12:45.612Z,50.50
2019-06-26T08:13:46.933Z,50.48
2019-06-26T08:14:48.361Z,50.27
2019-06-26T08:15:49.800Z,50.41
2019-06-26T08:16:51.238Z,50.06
2019-06-26T08:18:00.612Z,50.47
2019-06-26T08:18:54.148Z,50.47
2019-06-26T08:19:55.582Z,49.88
2019-06-26T08:21:11.587Z,49.88
2019-06-26T08:21:58.457Z,49.71
2019-06-26T08:22:59.893Z,49.96
2019-06-26T08:24:01.312Z,49.80
2019-06-26T08:25:02.760Z,49.65
2019-06-26T08:26:04.222Z,49.39
2019-06-26T08:27:05.648Z,49.12
2019-06-26T08:28:07.163Z,49.37
2019-06-26T08:29:08.508Z,49.94
2019-06-26T08:30:09.935Z,49.88
2019-06-26T08:31:11.390Z,49.84
2019-06-26T08:32:12.864Z,49.62
2019-06-26T08:33:14.303Z,49.74
2019-06-26T08:34:15.750Z,50.07
2019-06-26T08:35:17.186Z,50.35
2019-06-26T08:36:18.653Z,49.90
2019-06-26T08:37:20.097Z,49.88
2019-06-26T08:38:21.534Z,50.27
2019-06-26T08:39:23.053Z,50.36
2019-06-26T08:40:24.396Z,50.21
2019-06-26T08:41:25.852Z,49.50
2019-06-26T08:42:27.292Z,49.87
2019-06-26T08:43:31.194Z,49.68
2019-06-26T08:44:30.176Z,49.80
2019-06-26T08:45:31.573Z,50.02
2019-06-26T08:46:33.028Z,50.03
2019-06-26T08:47:34.449Z,50.25
2019-06-26T08:48:39.960Z,50.39
2019-06-26T08:49:37.299Z,50.39
2019-06-26T08:50:38.735Z,50.42
2019-06-26T08:51:40.166Z,50.51
2019-06-26T08:52:41.609Z,50.30
2019-06-26T08:53:43.052Z,50.02
2019-06-26T08:54:44.571Z,49.46
2019-06-26T08:55:45.928Z,49.34
2019-06-26T08:56:47.369Z,49.65
2019-06-26T08:57:48.814Z,49.66
2019-06-26T08:58:50.251Z,49.88
2019-06-26T08:59:51.680Z,49.87
2019-06-26T09:00:53.213Z,49.51
2019-06-26T09:01:54.572Z,49.49
2019-06-26T09:02:56.005Z,49.63
2019-06-26T09:03:57.452Z,49.66
2019-06-26T09:04:58.908Z,49.73
2019-06-26T09:06:00.412Z,49.73
2019-06-26T09:07:01.866Z,49.49
2019-06-26T09:08:03.388Z,49.36
2019-06-26T09:09:04.706Z,49.20
2019-06-26T09:10:06.170Z,49.13
2019-06-26T09:11:07.613Z,49.02
2019-06-26T09:12:09.086Z,48.97
2019-06-26T09:13:10.547Z,48.85
2019-06-26T09:14:11.969Z,48.96
2019-06-26T09:15:13.412Z,48.88
2019-06-26T09:16:14.854Z,48.84
2019-06-26T09:17:16.283Z,48.85
2019-06-26T09:18:31.125Z,48.93
2019-06-26T09:19:19.151Z,48.97
2019-06-26T09:20:20.599Z,48.79
2019-06-26T09:21:22.040Z,48.97
2019-06-26T09:22:23.474Z,49.20
2019-06-26T09:23:24.916Z,49.39
2019-06-26T09:24:26.353Z,49.62
2019-06-26T09:25:27.801Z,49.27
2019-06-26T09:26:29.230Z,48.96
2019-06-26T09:27:30.663Z,48.31
2019-06-26T09:28:32.102Z,48.42
2019-06-26T09:29:33.546Z,48.20
2019-06-26T09:30:34.994Z,48.07
2019-06-26T09:31:36.421Z,48.09
2019-06-26T09:32:37.859Z,47.90
2019-06-26T09:33:39.302Z,47.94
2019-06-26T09:34:40.741Z,47.76
2019-06-26T09:35:42.170Z,47.64
2019-06-26T09:36:43.624Z,47.54
2019-06-26T09:37:45.023Z,47.33
2019-06-26T09:38:46.472Z,47.28
2019-06-26T09:39:47.922Z,47.10
2019-06-26T09:40:49.336Z,46.70
2019-06-26T09:41:50.782Z,46.36
2019-06-26T09:42:52.236Z,46.01
2019-06-26T09:43:53.684Z,45.48
2019-06-26T09:44:55.159Z,45.03
2019-06-26T09:45:56.489Z,44.76
2019-06-26T09:46:57.926Z,44.53
2019-06-26T09:47:59.406Z,44.25
2019-06-26T09:49:00.831Z,43.71
2019-06-26T09:50:02.351Z,43.52
2019-06-26T09:51:03.785Z,42.91
2019-06-26T09:52:05.285Z,42.67
2019-06-26T09:53:06.649Z,42.46
2019-06-26T09:54:08.093Z,42.43
2019-06-26T09:55:09.521Z,42.46
2019-06-26T09:56:10.946Z,42.41
2019-06-26T09:57:12.379Z,42.24
2019-06-26T09:58:13.865Z,42.00
2019-06-26T09:59:15.311Z,41.90
2019-06-26T10:00:16.609Z,41.73
2019-06-26T10:01:18.025Z,41.60
2019-06-26T10:02:19.448Z,41.42
2019-06-26T10:03:20.878Z,41.31
2019-06-26T10:04:22.317Z,41.28
2019-06-26T10:05:23.750Z,41.02
2019-06-26T10:06:25.197Z,41.02
2019-06-26T10:07:26.592Z,40.95
2019-06-26T10:08:28.008Z,40.79
2019-06-26T10:09:29.448Z,40.54
2019-06-26T10:10:30.869Z,40.44
2019-06-26T10:11:32.288Z,40.39
2019-06-26T10:12:33.724Z,40.36
2019-06-26T10:13:35.148Z,40.06
2019-06-26T10:14:47.213Z,39.88
2019-06-26T10:15:38.008Z,39.82
2019-06-26T10:16:39.437Z,39.56
2019-06-26T10:17:40.865Z,39.54
2019-06-26T10:18:42.300Z,39.44
2019-06-26T10:19:43.740Z,39.47
2019-06-26T10:20:45.173Z,39.28
2019-06-26T10:21:46.623Z,39.32
2019-06-26T10:22:48.041Z,39.31
2019-06-26T10:23:49.465Z,39.34
2019-06-26T10:24:50.902Z,39.46
2019-06-26T10:25:52.322Z,39.44
2019-06-26T10:26:53.735Z,39.57
2019-06-26T10:27:55.152Z,39.72
2019-06-26T10:28:56.588Z,39.69
2019-06-26T10:29:58.018Z,39.73
2019-06-26T10:30:59.454Z,39.57
2019-06-26T10:32:00.965Z,39.63
2019-06-26T10:33:02.403Z,39.56
2019-06-26T10:34:03.826Z,39.65
2019-06-26T10:35:05.242Z,39.56
2019-06-26T10:36:06.660Z,39.54
2019-06-26T10:37:08.096Z,39.54
2019-06-26T10:38:09.569Z,39.54
2019-06-26T10:39:11.047Z,39.63
2019-06-26T10:40:15.842Z,39.62
2019-06-26T10:41:13.921Z,39.70
2019-06-26T10:42:15.355Z,39.69
2019-06-26T10:43:16.777Z,39.48
2019-06-26T10:44:18.231Z,39.24
2019-06-26T10:45:19.687Z,39.25
2019-06-26T10:46:21.145Z,39.19
2019-06-26T10:47:22.574Z,39.13
2019-06-26T10:48:24.030Z,39.07
2019-06-26T10:49:27.606Z,39.24
2019-06-26T10:50:26.849Z,39.06
2019-06-26T10:51:28.276Z,39.12
2019-06-26T10:52:29.685Z,38.86
2019-06-26T10:53:31.128Z,38.97
2019-06-26T10:54:32.571Z,38.89
2019-06-26T10:55:33.986Z,38.78
2019-06-26T10:56:35.425Z,38.84
2019-06-26T10:57:36.837Z,38.75
2019-06-26T10:58:38.259Z,38.93
2019-06-26T10:59:39.706Z,39.00
2019-06-26T11:00:41.128Z,39.07
2019-06-26T11:01:42.550Z,39.14
2019-06-26T11:02:43.963Z,39.14
2019-06-26T11:03:45.400Z,39.05
2019-06-26T11:04:46.813Z,39.00
2019-06-26T11:05:48.246Z,38.95
2019-06-26T11:06:49.659Z,38.89
2019-06-26T11:07:51.070Z,38.87
2019-06-26T11:08:52.496Z,38.86
2019-06-26T11:09:53.914Z,38.84
2019-06-26T11:10:55.335Z,38.77
2019-06-26T11:11:56.798Z,38.78
2019-06-26T11:12:58.189Z,38.84
2019-06-26T11:13:59.599Z,38.82
2019-06-26T11:15:01.024Z,38.82
2019-06-26T11:16:02.458Z,38.89
2019-06-26T11:17:03.865Z,38.97
2019-06-26T11:18:05.295Z,38.98
2019-06-26T11:19:06.730Z,39.02
2019-06-26T11:20:08.150Z,39.05
2019-06-26T11:21:09.569Z,39.10
2019-06-26T11:22:10.988Z,39.10
2019-06-26T11:23:12.437Z,38.97
2019-06-26T11:24:13.845Z,38.77
2019-06-26T11:25:15.266Z,38.71
2019-06-26T11:26:16.667Z,38.74
2019-06-26T11:27:18.088Z,38.84
2019-06-26T11:28:19.506Z,39.02
2019-06-26T11:29:20.920Z,39.05
2019-06-26T11:30:22.339Z,38.98
2019-06-26T11:31:23.765Z,39.02
2019-06-26T11:32:25.190Z,39.19
2019-06-26T11:33:26.608Z,39.19
2019-06-26T11:34:28.027Z,39.12
2019-06-26T11:35:29.489Z,39.01
2019-06-26T11:36:30.924Z,38.75
2019-06-26T11:37:32.341Z,38.71
2019-06-26T11:38:33.758Z,38.70
2019-06-26T11:39:35.181Z,38.92
2019-06-26T11:40:36.619Z,38.95
2019-06-26T11:41:38.046Z,39.22
2019-06-26T11:42:39.485Z,39.62
2019-06-26T11:43:40.886Z,39.88
2019-06-26T11:44:42.302Z,40.38
2019-06-26T11:45:43.784Z,40.75
2019-06-26T11:46:45.210Z,41.17
2019-06-26T11:47:46.636Z,41.35
2019-06-26T11:48:48.061Z,41.67
2019-06-26T11:49:59.273Z,41.76
2019-06-26T11:50:50.871Z,41.69
2019-06-26T11:51:52.287Z,41.86
2019-06-26T11:52:53.714Z,41.89
2019-06-26T11:53:55.121Z,42.34
2019-06-26T11:55:02.507Z,42.80
2019-06-26T11:55:57.941Z,43.03
2019-06-26T11:56:59.378Z,43.26
2019-06-26T11:58:00.796Z,43.17
2019-06-26T11:59:02.216Z,43.43
2019-06-26T12:00:03.699Z,43.63
2019-06-26T12:01:05.078Z,43.77
2019-06-26T12:02:06.514Z,43.84
2019-06-26T12:03:07.950Z,44.05
2019-06-26T12:04:09.529Z,44.09
2019-06-26T12:05:10.764Z,43.81
2019-06-26T12:06:18.688Z,43.82
2019-06-26T12:07:13.590Z,43.33
2019-06-26T12:08:18.179Z,43.41
2019-06-26T12:09:16.411Z,43.29
2019-06-26T12:10:17.838Z,43.70
2019-06-26T12:11:19.291Z,43.71
2019-06-26T12:12:20.710Z,43.86
2019-06-26T12:13:22.133Z,43.79
2019-06-26T12:14:23.545Z,43.78
2019-06-26T12:15:24.975Z,43.79
2019-06-26T12:16:26.397Z,44.05
2019-06-26T12:17:27.841Z,44.18
2019-06-26T12:18:29.248Z,44.40
2019-06-26T12:19:30.685Z,44.43
2019-06-26T12:20:32.248Z,44.53
2019-06-26T12:21:33.483Z,44.81
2019-06-26T12:22:34.911Z,44.82
2019-06-26T12:23:36.323Z,44.97
2019-06-26T12:24:37.734Z,44.85
2019-06-26T12:25:39.212Z,44.85
2019-06-26T12:26:40.644Z,44.66
2019-06-26T12:27:42.066Z,44.62
2019-06-26T12:28:43.512Z,44.64
2019-06-26T12:29:44.923Z,44.27
2019-06-26T12:30:46.346Z,44.09
2019-06-26T12:31:47.763Z,44.09
2019-06-26T12:33:02.176Z,43.87
2019-06-26T12:33:50.569Z,43.97
2019-06-26T12:34:51.992Z,44.06
2019-06-26T12:35:53.417Z,43.78
2019-06-26T12:36:54.816Z,43.96
2019-06-26T12:37:56.242Z,44.13
2019-06-26T12:38:57.651Z,44.06
2019-06-26T12:39:59.076Z,44.31
2019-06-26T12:41:00.496Z,44.46
2019-06-26T12:42:01.995Z,44.53
2019-06-26T12:43:03.291Z,44.35
2019-06-26T12:44:04.700Z,44.32
2019-06-26T12:45:06.129Z,44.49
2019-06-26T12:46:07.539Z,44.54
2019-06-26T12:47:08.982Z,44.49
2019-06-26T12:48:10.433Z,43.72
2019-06-26T12:49:11.844Z,43.53
2019-06-26T12:50:14.167Z,42.87
2019-06-26T12:51:15.587Z,42.50
2019-06-26T12:52:17.216Z,42.07
2019-06-26T12:53:18.413Z,41.72
2019-06-26T12:54:19.848Z,41.50
2019-06-26T12:55:21.277Z,41.21
2019-06-26T12:56:22.701Z,41.05
2019-06-26T12:57:24.126Z,40.57
2019-06-26T12:58:25.554Z,40.24
2019-06-26T12:59:26.976Z,40.02
2019-06-26T13:00:28.423Z,39.76
2019-06-26T13:01:29.842Z,39.57
2019-06-26T13:02:31.285Z,39.34
2019-06-26T13:03:32.707Z,39.28
2019-06-26T13:04:34.122Z,39.10
2019-06-26T13:05:35.548Z,39.00
2019-06-26T13:06:36.988Z,38.71
2019-06-26T13:07:38.438Z,38.37
2019-06-26T13:08:39.979Z,38.19
2019-06-26T13:09:41.289Z,37.90
2019-06-26T13:10:49.403Z,37.59
2019-06-26T13:11:44.108Z,37.54
2019-06-26T13:12:46.017Z,37.46